createdAt,value
2022-09-26T00:04:47.932Z,4.40
2022-09-26T00:11:09.197Z,3.75
2022-09-26T00:16:40.638Z,3.95
2022-09-26T00:23:01.294Z,3.55
2022-09-26T00:43:30.799Z,3.70
2022-09-26T00:49:33.826Z,3.13
2022-09-26T00:55:55.491Z,3.70
2022-09-26T01:02:16.600Z,3.20
2022-09-26T01:07:49.123Z,3.70
2022-09-26T01:13:22.265Z,3.35
2022-09-26T01:18:53.315Z,3.08
2022-09-26T01:33:09.990Z,3.33
2022-09-26T01:39:13.954Z,3.20
2022-09-26T01:45:13.930Z,3.13
2022-09-26T01:50:57.540Z,3.25
2022-09-26T01:56:33.952Z,3.30
2022-09-26T02:02:10.112Z,3.20
2022-09-26T02:07:51.157Z,3.42
2022-09-26T02:13:42.661Z,3.05
2022-09-26T02:19:24.562Z,3.28
2022-09-26T02:24:55.550Z,2.88
2022-09-26T02:30:27.372Z,2.95
2022-09-26T02:35:59.184Z,2.80
2022-09-26T02:41:51.592Z,2.75
2022-09-26T02:47:40.333Z,2.88
2022-09-26T02:53:31.798Z,2.80
2022-09-26T02:59:07.611Z,2.85
2022-09-26T03:04:41.547Z,3.28
2022-09-26T03:10:13.553Z,3.03
2022-09-26T03:15:49.417Z,2.78
2022-09-26T03:21:20.648Z,2.40
2022-09-26T03:26:53.395Z,2.97
2022-09-26T03:32:25.254Z,2.90
2022-09-26T03:37:56.223Z,2.80
2022-09-26T03:43:29.826Z,3.10
2022-09-26T03:49:01.536Z,2.90
2022-09-26T03:54:32.678Z,3.10
2022-09-26T04:00:07.955Z,2.63
2022-09-26T04:05:49.909Z,2.88
2022-09-26T04:11:23.122Z,2.70
2022-09-26T04:16:54.785Z,3.17
2022-09-26T04:22:41.039Z,3.03
2022-09-26T04:28:12.343Z,2.88
2022-09-26T04:33:45.308Z,2.70
2022-09-26T04:39:16.481Z,2.70
2022-09-26T04:44:49.874Z,2.60
2022-09-26T04:50:21.684Z,2.40
2022-09-26T04:56:09.637Z,2.40
2022-09-26T05:01:40.795Z,2.50
2022-09-26T05:07:18.687Z,2.50
2022-09-26T05:12:49.827Z,2.87
2022-09-26T05:18:23.737Z,2.70
2022-09-26T05:24:13.686Z,2.40
2022-09-26T05:29:45.495Z,2.65
2022-09-26T05:35:16.956Z,2.60
2022-09-26T05:40:58.337Z,2.20
2022-09-26T05:46:34.360Z,2.75
2022-09-26T05:52:12.369Z,2.10
2022-09-26T05:57:54.027Z,2.20
2022-09-26T06:03:29.277Z,2.33
2022-09-26T06:09:14.505Z,2.30
2022-09-26T06:15:05.989Z,2.50
2022-09-26T06:20:38.657Z,2.35
2022-09-26T06:26:15.306Z,2.55
2022-09-26T06:31:46.519Z,2.10
2022-09-26T06:37:18.014Z,2.20
2022-09-26T06:42:49.688Z,2.30
2022-09-26T06:48:37.265Z,2.38
2022-09-26T06:54:43.228Z,1.98
2022-09-26T07:00:17.977Z,2.15
2022-09-26T07:06:15.588Z,2.00
2022-09-26T07:12:13.048Z,1.98
2022-09-26T07:17:38.865Z,1.95
2022-09-26T07:23:20.915Z,1.90
2022-09-26T07:28:54.912Z,2.03
2022-09-26T07:34:29.950Z,1.98
2022-09-26T07:40:01.967Z,1.70
2022-09-26T07:45:54.535Z,1.75
2022-09-26T07:51:25.697Z,1.70
2022-09-26T07:56:57.001Z,2.03
2022-09-26T08:02:54.739Z,2.10
2022-09-26T08:08:26.956Z,2.00
2022-09-26T08:14:04.469Z,1.92
2022-09-26T08:19:54.627Z,1.95
2022-09-26T08:25:26.086Z,1.70
2022-09-26T08:31:05.654Z,1.83
2022-09-26T08:36:37.751Z,1.80
2022-09-26T08:42:11.494Z,1.50
2022-09-26T08:48:27.499Z,1.70
2022-09-26T08:54:37.356Z,1.65
2022-09-26T09:00:19.310Z,1.90
2022-09-26T09:06:06.856Z,1.73
2022-09-26T09:12:02.084Z,1.80
2022-09-26T09:17:56.490Z,1.65
2022-09-26T09:24:17.261Z,1.50
2022-09-26T09:29:58.949Z,1.70
2022-09-26T09:36:42.388Z,1.50
2022-09-26T09:42:51.337Z,1.73
2022-09-26T09:48:26.224Z,1.52
2022-09-26T09:54:22.960Z,1.65
2022-09-26T10:00:18.610Z,1.63
2022-09-26T10:06:01.923Z,1.52
2022-09-26T10:11:41.912Z,1.45
2022-09-26T10:17:32.133Z,1.50
2022-09-26T10:23:22.129Z,1.55
2022-09-26T10:28:56.246Z,1.27
2022-09-26T10:34:35.023Z,1.40
2022-09-26T10:40:41.593Z,1.80
2022-09-26T10:46:18.419Z,1.50
2022-09-26T10:52:18.562Z,1.60
2022-09-26T10:57:53.710Z,1.45
2022-09-26T11:03:40.560Z,1.50
2022-09-26T11:09:31.033Z,1.40
2022-09-26T11:15:40.023Z,1.88
2022-09-26T11:21:48.300Z,1.60
2022-09-26T11:27:24.936Z,1.63
2022-09-26T11:32:58.326Z,1.48
2022-09-26T11:38:51.316Z,1.70
2022-09-26T11:44:50.847Z,1.38
2022-09-26T11:50:59.074Z,1.70
2022-09-26T11:57:24.292Z,1.50
2022-09-26T12:03:23.426Z,1.38
2022-09-26T12:09:26.094Z,1.27
2022-09-26T12:15:08.675Z,1.73
2022-09-26T12:21:04.794Z,1.60
2022-09-26T12:27:01.564Z,1.70
2022-09-26T12:33:04.776Z,1.58
2022-09-26T12:38:49.409Z,1.60
2022-09-26T12:44:44.724Z,1.83
2022-09-26T12:50:33.655Z,1.40
2022-09-26T12:56:11.088Z,1.60
2022-09-26T13:01:54.503Z,1.50
2022-09-26T13:07:31.799Z,1.20
2022-09-26T13:13:30.229Z,1.45
2022-09-26T13:19:26.685Z,1.77
2022-09-26T13:25:32.395Z,1.20
2022-09-26T13:31:19.065Z,1.17
2022-09-26T13:36:50.408Z,1.15
2022-09-26T13:42:24.942Z,1.25
2022-09-26T13:48:16.836Z,1.30
2022-09-26T13:53:56.171Z,1.20
2022-09-26T13:59:34.696Z,1.63
2022-09-26T14:05:17.794Z,1.30
2022-09-26T14:11:11.910Z,1.20
2022-09-26T14:16:43.108Z,0.98
2022-09-26T14:22:20.903Z,1.20
2022-09-26T14:28:35.136Z,1.20
2022-09-26T14:34:16.959Z,1.33
2022-09-26T14:39:51.346Z,1.25
2022-09-26T14:45:41.657Z,1.17
2022-09-26T14:51:15.989Z,1.23
2022-09-26T14:57:21.324Z,1.33
2022-09-26T15:02:58.851Z,1.25
2022-09-26T15:08:36.044Z,1.10
2022-09-26T15:14:41.609Z,1.00
2022-09-26T15:20:17.350Z,1.08
2022-09-26T15:25:48.808Z,1.40
2022-09-26T15:31:23.901Z,1.13
2022-09-26T15:36:56.991Z,1.25
2022-09-26T15:42:49.038Z,1.27
2022-09-26T15:48:20.194Z,1.25
2022-09-26T15:53:58.219Z,1.70
2022-09-26T15:59:41.404Z,1.48
2022-09-26T16:05:13.339Z,1.30
2022-09-26T16:10:59.060Z,1.30
2022-09-26T16:16:32.302Z,1.27
2022-09-26T16:22:40.631Z,1.20
2022-09-26T16:28:11.796Z,1.70
2022-09-26T16:33:49.736Z,1.42
2022-09-26T16:39:30.000Z,1.20
2022-09-26T16:45:04.120Z,1.40
2022-09-26T16:50:36.834Z,1.45
2022-09-26T16:56:10.648Z,1.30
2022-09-26T17:01:54.092Z,1.45
2022-09-26T17:07:25.153Z,1.48
2022-09-26T17:12:56.590Z,1.25
2022-09-26T17:18:29.556Z,1.40
2022-09-26T17:24:01.034Z,1.50
2022-09-26T17:29:35.437Z,1.77
2022-09-26T17:35:17.072Z,2.85
2022-09-26T17:40:48.381Z,5.00
2022-09-26T17:46:20.502Z,15.30
2022-09-26T17:51:56.281Z,4.63
2022-09-26T17:57:30.401Z,6.93
2022-09-26T18:09:10.498Z,5.85
2022-09-26T18:14:42.819Z,4.63
2022-09-26T18:20:14.020Z,4.78
2022-09-26T18:25:47.591Z,4.00
2022-09-26T18:31:21.429Z,3.95
2022-09-26T18:36:57.042Z,3.83
2022-09-26T18:42:29.799Z,3.90
2022-09-26T18:48:01.554Z,3.50
2022-09-26T18:53:37.593Z,3.22
2022-09-26T18:59:10.424Z,3.38
2022-09-26T19:04:41.782Z,3.35
2022-09-26T19:10:17.629Z,2.90
2022-09-26T19:15:48.618Z,2.75
2022-09-26T19:21:35.366Z,2.95
2022-09-26T19:27:13.409Z,3.20
2022-09-26T19:32:48.513Z,2.70
2022-09-26T19:38:26.182Z,2.85
2022-09-26T19:43:58.143Z,2.95
2022-09-26T19:49:32.407Z,3.25
2022-09-26T19:55:16.179Z,3.10
2022-09-26T20:00:50.131Z,2.85
2022-09-26T20:06:24.465Z,2.88
2022-09-26T20:11:55.943Z,2.80
2022-09-26T20:17:27.287Z,2.80
2022-09-26T20:22:58.961Z,2.58
2022-09-26T20:28:30.179Z,2.30
2022-09-26T20:34:01.099Z,2.72
2022-09-26T20:39:32.061Z,3.00
2022-09-26T20:45:03.377Z,2.78
2022-09-26T20:50:39.320Z,2.80
2022-09-26T20:56:17.290Z,2.75
2022-09-26T21:01:48.830Z,2.80
2022-09-26T21:07:20.478Z,2.35
2022-09-26T21:12:51.737Z,3.10
2022-09-26T21:18:23.347Z,2.80
2022-09-26T21:23:54.985Z,2.83
2022-09-26T21:29:27.154Z,2.60
2022-09-26T21:35:02.981Z,2.75
2022-09-26T21:40:37.092Z,2.90
2022-09-26T21:46:08.639Z,2.85
2022-09-26T21:51:40.095Z,2.80
2022-09-26T21:57:16.010Z,2.42
2022-09-26T22:02:47.114Z,2.85
2022-09-26T22:08:18.313Z,2.50
2022-09-26T22:13:49.457Z,3.03
2022-09-26T22:19:20.450Z,2.60
2022-09-26T22:24:51.559Z,2.70
2022-09-26T22:30:22.743Z,2.50
2022-09-26T22:35:56.416Z,2.22
2022-09-26T22:41:27.739Z,2.40
2022-09-26T22:47:00.719Z,2.67
2022-09-26T22:52:31.829Z,2.63
2022-09-26T22:58:03.173Z,2.47
2022-09-26T23:03:34.901Z,2.58
2022-09-26T23:09:06.527Z,2.83
2022-09-26T23:14:38.060Z,2.60
2022-09-26T23:20:09.239Z,2.17
2022-09-26T23:25:50.325Z,2.42
2022-09-26T23:31:22.517Z,2.20
2022-09-26T23:36:54.017Z,2.30
2022-09-26T23:42:25.672Z,2.20
2022-09-26T23:47:56.553Z,2.30
2022-09-26T23:53:27.832Z,2.55
2022-09-26T23:58:59.203Z,2.72
